Time;durP1;ratioP1;P1;durP2;ratioP2;P2;SDS_P1;SDS_P2;PMS_P1;PMS_P2;Temp;Humidity;BMP_temperature;BMP_pressure;BME280_temperature;BME280_humidity;BME280_pressure;Samples;Min_cycle;Max_cycle;Signal;HPM_P1;HPM_P2
2022/02/06 00:00:09;;;;;;;7.65;3.00;;;9.10;80.20;;;;;;5102335;28;20179;-88
2022/02/06 00:02:38;;;;;;;7.80;2.60;;;9.20;80.10;;;;;;5088917;28;20206;-87
2022/02/06 00:05:04;;;;;;;5.63;2.30;;;9.20;80.00;;;;;;5107523;28;20198;-87
2022/02/06 00:07:30;;;;;;;11.20;2.88;;;9.20;80.00;;;;;;5107247;28;20186;-88
2022/02/06 00:09:57;;;;;;;14.93;3.10;;;9.20;79.90;;;;;;5106004;28;20576;-86
2022/02/06 00:12:23;;;;;;;5.35;2.90;;;9.20;80.00;;;;;;5104779;28;20245;-86
2022/02/06 00:14:49;;;;;;;3.35;2.20;;;9.30;80.10;;;;;;5104688;28;20175;-87
2022/02/06 00:17:15;;;;;;;7.93;3.08;;;9.20;80.00;;;;;;5099556;28;20178;-87
2022/02/06 00:19:43;;;;;;;7.37;2.37;;;9.20;80.10;;;;;;5098658;28;20186;-88
2022/02/06 00:22:13;;;;;;;8.38;3.38;;;9.20;80.10;;;;;;5133899;27;20422;-87
2022/02/06 00:24:54;;;;;;;7.90;2.65;;;9.20;80.00;;;;;;5136562;27;20159;-88
2022/02/06 00:27:31;;;;;;;7.47;2.75;;;9.30;80.10;;;;;;5118606;27;20174;-87
2022/02/06 00:30:08;;;;;;;4.18;2.08;;;9.20;80.00;;;;;;5136669;27;20220;-88
2022/02/06 00:32:46;;;;;;;13.45;3.17;;;9.20;80.00;;;;;;5110861;27;20293;-86
2022/02/06 00:40:33;;;;;;;9.18;2.00;;;9.00;80.50;;;;;;5136195;27;20174;-88
2022/02/06 00:42:58;;;;;;;9.88;2.42;;;9.00;81.00;;;;;;5117406;27;20225;-87
2022/02/06 00:45:24;;;;;;;4.73;2.50;;;9.00;81.50;;;;;;5119748;27;20201;-85
2022/02/06 00:47:50;;;;;;;12.20;2.73;;;9.10;81.60;;;;;;5120809;27;20179;-87
2022/02/06 00:50:16;;;;;;;5.53;2.60;;;9.10;81.60;;;;;;5120616;27;20186;-87
2022/02/06 00:52:52;;;;;;;6.83;3.03;;;9.10;81.70;;;;;;5130032;27;20209;-86
2022/02/06 00:55:17;;;;;;;16.40;3.75;;;9.00;82.00;;;;;;5111627;28;20792;-87
2022/02/06 00:57:43;;;;;;;12.07;2.70;;;9.00;82.10;;;;;;5098579;28;20175;-87
2022/02/06 01:00:09;;;;;;;11.90;2.13;;;8.90;82.20;;;;;;5098751;28;20175;-86
2022/02/06 01:02:35;;;;;;;5.05;2.47;;;8.90;82.30;;;;;;5099768;28;20222;-87
2022/02/06 01:05:01;;;;;;;6.67;2.40;;;8.90;82.00;;;;;;5119860;28;20175;-87
2022/02/06 01:07:27;;;;;;;7.32;2.90;;;8.80;81.60;;;;;;5107824;28;20179;-87
2022/02/06 01:09:52;;;;;;;14.30;2.57;;;8.90;81.50;;;;;;5103535;28;20179;-87
2022/02/06 01:12:23;;;;;;;12.30;3.23;;;8.80;81.40;;;;;;5098193;28;20593;-87
2022/02/06 01:15:03;;;;;;;8.00;2.25;;;8.80;81.40;;;;;;5097425;28;20627;-87
2022/02/06 01:17:37;;;;;;;7.70;2.10;;;8.90;81.40;;;;;;5098769;28;20167;-86
2022/02/06 01:20:15;;;;;;;5.95;2.05;;;8.90;81.30;;;;;;5099920;28;20171;-87
2022/02/06 01:22:50;;;;;;;5.00;2.08;;;8.90;81.00;;;;;;5080182;28;20204;-86
2022/02/06 01:25:23;;;;;;;7.63;1.80;;;9.00;80.90;;;;;;5082552;28;20172;-86
2022/02/06 01:28:13;;;;;;;3.35;2.08;;;9.10;80.80;;;;;;5082117;28;20179;-86
2022/02/06 01:30:55;;;;;;;13.52;2.78;;;9.00;81.00;;;;;;5099510;28;20186;-85
2022/02/06 01:33:29;;;;;;;8.55;2.53;;;9.00;81.40;;;;;;5086789;28;20207;-84
2022/02/06 01:36:06;;;;;;;3.15;1.95;;;8.90;81.70;;;;;;5106227;28;20214;-86
2022/02/06 01:41:10;;;;;;;3.30;1.70;;;9.00;82.50;;;;;;5103813;28;20180;-85
2022/02/06 01:43:46;;;;;;;5.00;2.53;;;8.90;82.80;;;;;;5081485;28;20287;-85
2022/02/06 01:46:35;;;;;;;7.22;2.00;;;8.90;82.90;;;;;;5077331;28;20168;-85
2022/02/06 02:05:35;;;;;;;6.05;2.28;;;8.90;82.70;;;;;;5120595;28;20278;-85
2022/02/06 02:18:18;;;;;;;7.00;2.22;;;8.80;83.60;;;;;;5117738;28;20170;-83
2022/02/06 02:21:06;;;;;;;11.18;2.97;;;8.80;83.90;;;;;;5103341;28;20162;-84
2022/02/06 02:47:19;;;;;;;6.90;2.30;;;8.60;85.70;;;;;;5120205;28;20164;-84
2022/02/06 02:49:55;;;;;;;13.63;2.83;;;8.60;85.80;;;;;;5120610;28;20254;-86
2022/02/06 02:57:48;;;;;;;11.57;2.85;;;8.50;86.30;;;;;;5121475;28;20633;-84
2022/02/06 03:00:34;;;;;;;11.73;2.83;;;8.60;86.30;;;;;;5102224;28;20540;-84
2022/02/06 03:03:14;;;;;;;8.55;2.95;;;8.60;86.30;;;;;;5101945;28;20582;-84
2022/02/06 03:05:42;;;;;;;13.18;2.67;;;8.60;86.40;;;;;;5102661;28;20258;-84
2022/02/06 03:08:09;;;;;;;10.55;2.90;;;8.50;86.40;;;;;;5104843;28;20209;-84
2022/02/06 03:10:36;;;;;;;13.50;3.20;;;8.50;86.40;;;;;;5102048;28;20540;-84
2022/02/06 03:13:07;;;;;;;4.10;2.20;;;8.60;86.40;;;;;;5100668;28;20211;-83
2022/02/06 03:18:17;;;;;;;8.48;3.10;;;8.60;86.40;;;;;;5120223;28;20164;-84
2022/02/06 03:20:44;;;;;;;6.90;2.30;;;8.60;86.30;;;;;;5123980;27;20245;-83
2022/02/06 03:23:12;;;;;;;9.25;2.50;;;8.70;86.40;;;;;;5121554;27;20674;-84
2022/02/06 03:25:53;;;;;;;4.82;2.35;;;8.60;86.30;;;;;;5121029;27;20273;-84
2022/02/06 03:28:20;;;;;;;7.25;2.67;;;8.70;86.30;;;;;;5140223;27;20157;-83
2022/02/06 03:30:46;;;;;;;4.18;2.17;;;8.70;86.40;;;;;;5121704;27;20175;-83
2022/02/06 03:33:12;;;;;;;12.35;2.70;;;8.60;86.40;;;;;;5122210;27;20202;-83
2022/02/06 03:35:40;;;;;;;8.20;2.42;;;8.70;86.50;;;;;;5124131;27;20586;-83
2022/02/06 03:38:07;;;;;;;5.70;2.47;;;8.60;86.50;;;;;;5128321;27;20176;-83
2022/02/06 03:40:52;;;;;;;7.50;2.95;;;8.60;86.90;;;;;;5143865;27;20163;-83
2022/02/06 03:43:24;;;;;;;4.80;2.92;;;8.70;87.00;;;;;;5139487;27;20562;-86
2022/02/06 03:45:56;;;;;;;3.78;2.20;;;8.70;87.10;;;;;;5121669;27;20186;-83
2022/02/06 03:48:32;;;;;;;25.55;5.65;;;8.70;87.30;;;;;;5122957;27;20262;-86
2022/02/06 03:51:04;;;;;;;6.43;2.88;;;8.80;87.40;;;;;;5127185;27;20210;-83
2022/02/06 03:53:30;;;;;;;6.38;2.30;;;8.80;87.30;;;;;;5122798;27;20194;-83
2022/02/06 03:55:58;;;;;;;9.67;3.20;;;8.80;87.40;;;;;;5123017;27;20191;-84
2022/02/06 03:58:23;;;;;;;9.05;2.80;;;8.70;87.40;;;;;;5120792;27;20180;-83
2022/02/06 04:00:49;;;;;;;10.20;3.70;;;8.70;87.60;;;;;;5120198;27;20202;-83
2022/02/06 04:03:15;;;;;;;10.77;2.83;;;8.70;87.70;;;;;;5119998;27;20207;-83
2022/02/06 04:05:46;;;;;;;11.87;2.93;;;8.70;87.80;;;;;;5119900;27;20178;-83
2022/02/06 04:08:16;;;;;;;10.93;3.15;;;8.70;87.80;;;;;;5119970;27;20441;-84
2022/02/06 04:10:48;;;;;;;6.93;2.90;;;8.70;88.00;;;;;;5120069;27;20277;-83
2022/02/06 04:13:22;;;;;;;8.02;2.95;;;8.60;88.00;;;;;;5120528;27;20873;-83
2022/02/06 04:15:54;;;;;;;7.05;2.95;;;8.60;88.30;;;;;;5120871;27;20183;-83
2022/02/06 04:18:28;;;;;;;7.90;3.00;;;8.50;88.40;;;;;;5127547;27;20879;-84
2022/02/06 04:20:54;;;;;;;11.00;3.45;;;8.50;88.70;;;;;;5106681;27;20283;-83
2022/02/06 04:23:20;;;;;;;14.47;3.07;;;8.60;88.70;;;;;;5121794;27;20226;-85
2022/02/06 04:25:45;;;;;;;5.10;2.83;;;8.60;88.80;;;;;;5121321;27;20206;-84
2022/02/06 04:28:11;;;;;;;9.60;3.77;;;8.60;88.90;;;;;;5140423;27;20183;-83
2022/02/06 04:30:37;;;;;;;9.03;2.33;;;8.50;88.90;;;;;;5120384;27;20422;-83
2022/02/06 04:33:06;;;;;;;8.47;3.23;;;8.50;89.10;;;;;;5120556;27;20698;-85
2022/02/06 04:35:35;;;;;;;6.75;2.80;;;8.70;89.20;;;;;;5122836;27;20182;-86
2022/02/06 05:11:07;;;;;;;7.43;3.20;;;8.60;89.30;;;;;;5098083;28;20179;-83
2022/02/06 05:28:55;;;;;;;9.18;4.13;;;8.80;90.00;;;;;;5121692;28;20607;-83
2022/02/06 05:31:35;;;;;;;8.45;3.90;;;8.80;90.00;;;;;;5118983;28;20195;-83
2022/02/06 05:34:00;;;;;;;6.65;3.38;;;8.80;89.80;;;;;;5099583;28;20274;-83
2022/02/06 05:36:26;;;;;;;8.83;3.57;;;8.80;90.00;;;;;;5117791;28;20203;-83
2022/02/06 05:38:52;;;;;;;13.82;4.00;;;9.00;90.10;;;;;;5116917;28;20575;-84
2022/02/06 05:41:18;;;;;;;6.30;3.53;;;8.90;90.00;;;;;;5099363;28;20171;-83
2022/02/06 05:43:43;;;;;;;7.67;4.33;;;8.90;90.10;;;;;;5098481;28;20236;-83
2022/02/06 05:46:09;;;;;;;10.67;5.60;;;8.90;90.10;;;;;;5099674;28;20182;-83
2022/02/06 05:48:35;;;;;;;6.57;4.20;;;8.80;90.10;;;;;;5102815;28;20179;-84
2022/02/06 05:51:01;;;;;;;10.23;4.90;;;8.80;90.20;;;;;;5100486;28;20205;-85
2022/02/06 05:53:26;;;;;;;10.53;4.33;;;8.90;90.40;;;;;;5101224;28;20278;-84
2022/02/06 05:56:07;;;;;;;15.10;3.93;;;8.80;90.40;;;;;;5108247;28;20545;-84
2022/02/06 05:58:33;;;;;;;7.75;4.00;;;8.90;90.50;;;;;;5119543;28;20401;-84
2022/02/06 06:00:58;;;;;;;10.97;3.70;;;8.90;90.50;;;;;;5100714;28;20205;-83
2022/02/06 06:03:25;;;;;;;13.67;4.40;;;8.90;90.60;;;;;;5098861;28;20441;-83
2022/02/06 06:05:50;;;;;;;5.60;3.75;;;9.00;90.70;;;;;;5101080;28;20417;-84
2022/02/06 06:08:16;;;;;;;9.93;3.97;;;9.10;90.70;;;;;;5100127;28;20175;-83
2022/02/06 06:10:42;;;;;;;15.27;4.60;;;8.90;90.50;;;;;;5098667;28;20181;-83
2022/02/06 06:13:09;;;;;;;14.00;3.93;;;8.90;90.80;;;;;;5098391;28;20467;-84
2022/02/06 06:15:36;;;;;;;8.10;3.97;;;8.90;90.90;;;;;;5078367;28;20446;-83
2022/02/06 06:18:05;;;;;;;11.88;4.60;;;9.00;90.90;;;;;;5084025;28;20172;-84
2022/02/06 06:20:36;;;;;;;13.27;3.72;;;8.90;90.90;;;;;;5084134;28;20262;-83
2022/02/06 06:23:02;;;;;;;9.23;5.05;;;9.00;91.10;;;;;;5082257;28;20206;-84
2022/02/06 06:25:35;;;;;;;20.30;4.10;;;9.10;91.10;;;;;;5084639;28;20243;-83
2022/02/06 06:28:00;;;;;;;9.05;3.75;;;9.00;91.00;;;;;;5088627;28;20925;-83
2022/02/06 06:30:27;;;;;;;9.03;4.27;;;9.00;91.00;;;;;;5082269;28;20198;-83
2022/02/06 06:32:53;;;;;;;14.15;4.25;;;9.00;91.10;;;;;;5080574;28;20212;-83
2022/02/06 06:35:18;;;;;;;12.50;3.97;;;9.00;91.30;;;;;;5099328;28;20659;-83
2022/02/06 06:37:44;;;;;;;6.77;4.03;;;9.00;91.30;;;;;;5082103;28;20418;-84
2022/02/06 06:40:10;;;;;;;11.25;4.40;;;9.10;91.40;;;;;;5082216;28;20172;-83
2022/02/06 06:42:36;;;;;;;8.40;3.35;;;9.10;91.40;;;;;;5082355;28;20210;-86
2022/02/06 06:45:02;;;;;;;9.60;4.13;;;9.10;91.40;;;;;;5082864;28;20203;-83
2022/02/06 06:47:28;;;;;;;5.30;3.13;;;9.10;91.40;;;;;;5081795;28;20925;-83
2022/02/06 06:50:06;;;;;;;14.23;3.97;;;9.20;91.30;;;;;;5081537;28;20453;-83
2022/02/06 06:52:32;;;;;;;10.10;3.28;;;9.20;91.40;;;;;;5080014;28;20212;-83
2022/02/06 06:55:01;;;;;;;14.37;3.40;;;9.30;91.40;;;;;;5091476;28;20198;-83
2022/02/06 06:57:35;;;;;;;11.82;5.03;;;9.20;91.40;;;;;;5101218;28;20197;-83
2022/02/06 07:02:32;;;;;;;8.95;3.00;;;9.30;91.50;;;;;;5119253;28;20603;-84
2022/02/06 07:05:04;;;;;;;8.20;3.00;;;9.30;91.50;;;;;;5100904;28;20179;-84
2022/02/06 07:07:31;;;;;;;6.93;3.38;;;9.30;91.50;;;;;;5120182;28;20433;-83
2022/02/06 07:09:57;;;;;;;9.77;3.40;;;9.40;91.30;;;;;;5119773;28;20183;-82
2022/02/06 07:12:23;;;;;;;4.60;3.23;;;9.40;91.30;;;;;;5100932;28;20219;-83
2022/02/06 07:14:50;;;;;;;6.72;3.55;;;9.40;91.20;;;;;;5100528;28;20183;-83
2022/02/06 07:17:16;;;;;;;12.25;4.43;;;9.50;91.20;;;;;;5101297;28;20175;-86
2022/02/06 07:19:44;;;;;;;16.90;3.88;;;9.50;91.00;;;;;;5100665;28;20179;-83
2022/02/06 07:22:14;;;;;;;5.10;3.53;;;9.40;90.80;;;;;;5114335;28;20190;-83
2022/02/06 07:24:42;;;;;;;7.65;4.35;;;9.50;90.80;;;;;;5105891;28;20187;-83
2022/02/06 07:27:19;;;;;;;11.85;4.22;;;9.40;90.60;;;;;;5101179;28;20642;-83
2022/02/06 07:29:45;;;;;;;14.13;4.70;;;9.50;90.60;;;;;;5100544;28;20265;-83
2022/02/06 07:32:12;;;;;;;12.30;3.55;;;9.50;90.40;;;;;;5106314;28;20230;-83
2022/02/06 07:34:38;;;;;;;15.82;3.65;;;9.30;90.40;;;;;;5101859;28;20565;-83
2022/02/06 07:37:04;;;;;;;16.80;5.93;;;9.30;90.40;;;;;;5102243;28;20180;-82
2022/02/06 07:39:30;;;;;;;9.95;3.65;;;9.30;90.50;;;;;;5119339;28;20413;-83
2022/02/06 07:41:56;;;;;;;9.13;3.13;;;9.40;90.60;;;;;;5100715;28;20183;-83
2022/02/06 07:44:21;;;;;;;12.20;4.60;;;9.40;90.40;;;;;;5121808;28;20234;-83
2022/02/06 07:46:48;;;;;;;10.93;3.50;;;9.40;90.50;;;;;;5105206;28;20191;-83
2022/02/06 07:49:15;;;;;;;5.88;3.38;;;9.30;90.60;;;;;;5100574;28;20703;-83
2022/02/06 07:51:42;;;;;;;24.30;5.18;;;9.30;90.70;;;;;;5099768;28;20610;-83
2022/02/06 07:54:08;;;;;;;6.95;3.55;;;9.30;90.80;;;;;;5098762;28;20560;-83
2022/02/06 07:56:35;;;;;;;15.23;5.17;;;9.30;91.00;;;;;;5100479;28;20179;-83
2022/02/06 07:59:01;;;;;;;7.78;3.72;;;9.30;91.00;;;;;;5100541;28;20685;-83
2022/02/06 08:01:27;;;;;;;9.38;4.03;;;9.30;91.00;;;;;;5101055;28;20179;-83
2022/02/06 08:03:53;;;;;;;7.35;3.58;;;9.20;90.90;;;;;;5101312;28;20225;-86
2022/02/06 08:06:19;;;;;;;14.07;4.25;;;9.30;91.20;;;;;;5100262;28;20183;-83
2022/02/06 08:08:46;;;;;;;12.43;3.80;;;9.30;91.10;;;;;;5120080;28;20244;-83
2022/02/06 08:11:14;;;;;;;10.95;3.38;;;9.30;91.20;;;;;;5102096;28;20210;-84
2022/02/06 08:13:44;;;;;;;8.63;2.58;;;9.30;91.20;;;;;;5103531;28;20195;-87
2022/02/06 08:16:10;;;;;;;14.88;3.55;;;9.30;91.20;;;;;;5102821;28;20192;-84
2022/02/06 08:18:40;;;;;;;9.18;2.75;;;9.30;91.20;;;;;;5103753;28;20176;-85
2022/02/06 08:21:11;;;;;;;3.45;2.25;;;9.30;91.10;;;;;;5102345;28;20171;-88
2022/02/06 08:23:38;;;;;;;10.35;2.90;;;9.30;91.30;;;;;;5103390;28;20275;-89
2022/02/06 08:26:05;;;;;;;7.90;2.53;;;9.30;91.30;;;;;;5109650;28;20167;-88
2022/02/06 08:28:31;;;;;;;11.18;3.67;;;9.30;91.30;;;;;;5113244;28;20248;-88
2022/02/06 08:30:58;;;;;;;4.83;2.20;;;9.40;91.20;;;;;;5103499;28;20175;-87
2022/02/06 08:33:24;;;;;;;12.13;2.50;;;9.40;91.20;;;;;;5102257;28;20460;-88
2022/02/06 08:36:01;;;;;;;5.82;2.80;;;9.30;91.10;;;;;;5120397;28;20221;-88
2022/02/06 08:38:27;;;;;;;7.00;2.17;;;9.30;91.10;;;;;;5099128;28;20178;-88
2022/02/06 08:40:53;;;;;;;3.05;1.75;;;9.40;91.00;;;;;;5098781;28;20262;-87
2022/02/06 08:43:22;;;;;;;4.05;2.50;;;9.30;91.00;;;;;;5099809;28;20222;-88
2022/02/06 08:45:50;;;;;;;12.88;4.13;;;9.30;91.00;;;;;;5091850;28;20179;-87
2022/02/06 08:48:16;;;;;;;4.00;1.80;;;9.40;91.00;;;;;;5118996;28;20194;-87
2022/02/06 08:50:42;;;;;;;6.43;2.63;;;9.50;91.00;;;;;;5097394;28;20187;-87
2022/02/06 08:53:08;;;;;;;7.33;2.63;;;9.30;90.70;;;;;;5119643;28;20211;-87
2022/02/06 08:55:34;;;;;;;2.27;2.07;;;9.30;91.00;;;;;;5106746;28;20516;-87
2022/02/06 08:58:01;;;;;;;6.05;2.45;;;9.40;91.00;;;;;;5093553;28;20713;-87
2022/02/06 09:00:27;;;;;;;3.50;2.70;;;9.50;91.10;;;;;;5102757;28;20183;-88
2022/02/06 09:02:54;;;;;;;8.13;2.90;;;9.50;91.00;;;;;;5121652;28;20195;-90
2022/02/06 09:05:21;;;;;;;4.95;2.33;;;9.40;90.80;;;;;;5102687;28;20512;-90
2022/02/06 09:07:47;;;;;;;6.00;2.33;;;9.30;91.00;;;;;;5099761;28;20213;-91
2022/02/06 09:10:15;;;;;;;13.27;2.80;;;9.40;91.10;;;;;;5118521;28;20542;-90
2022/02/06 09:12:47;;;;;;;9.68;2.70;;;9.50;91.20;;;;;;5100569;28;20744;-90
2022/02/06 09:15:14;;;;;;;7.35;2.15;;;9.40;91.10;;;;;;5101560;28;20171;-91
2022/02/06 09:17:44;;;;;;;6.80;3.00;;;9.40;91.30;;;;;;5116376;28;20191;-90
2022/02/06 09:20:10;;;;;;;8.63;2.35;;;9.50;91.40;;;;;;5096827;28;20210;-89
2022/02/06 09:22:36;;;;;;;4.75;2.30;;;9.40;91.20;;;;;;5115000;28;20194;-89
2022/02/06 09:25:02;;;;;;;4.03;2.30;;;9.40;91.20;;;;;;5099329;28;20182;-88
2022/02/06 09:27:28;;;;;;;7.57;2.92;;;9.40;91.20;;;;;;5101894;28;20433;-89
2022/02/06 09:29:54;;;;;;;10.73;2.93;;;9.50;91.30;;;;;;5101943;28;20179;-88
2022/02/06 09:37:12;;;;;;;5.50;2.80;;;9.70;91.20;;;;;;5114820;28;20265;-87
2022/02/06 09:39:41;;;;;;;8.83;2.70;;;9.70;91.00;;;;;;5116708;28;20599;-88
2022/02/06 09:42:09;;;;;;;4.40;2.28;;;9.60;90.90;;;;;;5099704;28;20308;-88
2022/02/06 09:44:35;;;;;;;7.50;2.00;;;9.50;91.00;;;;;;5101498;28;20186;-89
2022/02/06 09:47:04;;;;;;;6.22;2.53;;;9.60;91.10;;;;;;5101611;28;20179;-88
2022/02/06 09:49:31;;;;;;;9.75;3.72;;;9.60;91.20;;;;;;5100364;28;20247;-89
2022/02/06 09:51:58;;;;;;;9.80;2.33;;;9.60;91.20;;;;;;5117351;28;20286;-87
2022/02/06 09:54:25;;;;;;;6.22;2.35;;;9.60;91.20;;;;;;5094529;28;20201;-87
2022/02/06 09:56:55;;;;;;;10.27;1.98;;;9.60;91.20;;;;;;5119187;28;20182;-88
2022/02/06 09:59:22;;;;;;;4.32;2.40;;;9.50;91.20;;;;;;5100847;28;20313;-88
2022/02/06 10:01:53;;;;;;;3.67;2.92;;;9.60;91.10;;;;;;5102024;28;20262;-87
2022/02/06 10:04:40;;;;;;;4.90;2.25;;;9.60;91.50;;;;;;5099964;28;20896;-87
2022/02/06 10:07:07;;;;;;;5.03;2.70;;;9.60;91.10;;;;;;5100798;28;20592;-87
2022/02/06 10:10:04;;;;;;;8.48;2.28;;;9.70;91.20;;;;;;5118939;28;20209;-88
2022/02/06 10:12:42;;;;;;;5.82;2.45;;;9.70;91.20;;;;;;5109151;27;20302;-88
2022/02/06 10:15:12;;;;;;;8.65;2.15;;;9.80;91.20;;;;;;5100701;28;20253;-88
2022/02/06 10:17:45;;;;;;;8.95;2.15;;;9.80;91.10;;;;;;5101296;28;20768;-87
2022/02/06 10:20:17;;;;;;;7.28;2.90;;;9.70;91.20;;;;;;5100485;28;20206;-87
2022/02/06 10:22:55;;;;;;;4.75;1.52;;;9.60;91.20;;;;;;5093905;28;20219;-87
2022/02/06 10:25:21;;;;;;;4.45;2.10;;;9.60;91.30;;;;;;5098322;28;20194;-88
2022/02/06 10:30:52;;;;;;;3.05;2.63;;;9.70;91.50;;;;;;5119660;27;20170;-89
2022/02/06 10:33:23;;;;;;;2.75;2.03;;;9.70;91.50;;;;;;5104018;28;20203;-88
2022/02/06 10:35:53;;;;;;;2.20;1.98;;;9.80;91.70;;;;;;5105113;28;20199;-88
2022/02/06 10:38:26;;;;;;;4.55;2.15;;;9.70;91.70;;;;;;5119936;28;20267;-86
2022/02/06 10:41:12;;;;;;;8.88;2.45;;;9.70;91.80;;;;;;5081039;28;20659;-87
2022/02/06 10:43:58;;;;;;;6.10;1.60;;;9.70;92.00;;;;;;5097352;28;20202;-88
2022/02/06 10:46:26;;;;;;;6.32;2.95;;;9.60;91.90;;;;;;5118233;28;20171;-89
2022/02/06 10:48:55;;;;;;;6.00;2.80;;;9.70;92.10;;;;;;5100365;28;20179;-85
2022/02/06 10:51:48;;;;;;;8.55;2.20;;;9.80;92.20;;;;;;5104605;28;20178;-85
2022/02/06 10:54:17;;;;;;;3.97;2.00;;;9.80;92.40;;;;;;5101123;28;20565;-86
2022/02/06 10:57:05;;;;;;;4.68;1.95;;;9.70;92.40;;;;;;5101361;28;20198;-85
2022/02/06 10:59:43;;;;;;;4.00;1.90;;;9.70;92.50;;;;;;5101553;28;20180;-86
2022/02/06 11:02:29;;;;;;;3.08;1.30;;;9.70;92.60;;;;;;5100587;28;20179;-86
2022/02/06 11:05:21;;;;;;;11.07;2.28;;;9.70;92.70;;;;;;5118513;28;20191;-86
2022/02/06 11:07:54;;;;;;;3.92;1.95;;;9.80;92.80;;;;;;5100092;28;20187;-88
2022/02/06 11:10:24;;;;;;;2.65;1.40;;;9.60;92.90;;;;;;5100463;28;20202;-87
2022/02/06 11:12:55;;;;;;;4.50;2.08;;;9.80;93.10;;;;;;5099947;28;20268;-87
2022/02/06 11:15:26;;;;;;;12.85;1.90;;;9.80;93.20;;;;;;5101539;28;20175;-87
2022/02/06 11:18:11;;;;;;;11.40;2.67;;;9.80;93.30;;;;;;5101376;28;20172;-87
2022/02/06 11:20:39;;;;;;;8.60;2.25;;;9.80;93.10;;;;;;5102608;28;20175;-88
2022/02/06 11:23:05;;;;;;;7.60;2.85;;;9.90;93.10;;;;;;5120784;28;20195;-86
2022/02/06 11:25:32;;;;;;;11.20;2.80;;;9.90;92.50;;;;;;5136081;28;20183;-86
2022/02/06 11:28:00;;;;;;;5.60;2.38;;;10.00;92.30;;;;;;5105862;28;20190;-87
2022/02/06 11:30:26;;;;;;;10.07;3.35;;;10.00;92.10;;;;;;5100500;28;20186;-86
2022/02/06 11:32:54;;;;;;;9.77;3.08;;;10.10;91.90;;;;;;5099547;28;20585;-84
2022/02/06 11:35:24;;;;;;;16.25;4.03;;;10.10;91.80;;;;;;5119436;28;20175;-86
2022/02/06 11:44:38;;;;;;;22.70;5.85;;;10.20;91.30;;;;;;5118360;28;20221;-84
2022/02/06 11:47:26;;;;;;;18.30;4.07;;;10.20;90.90;;;;;;5100474;28;20175;-85
2022/02/06 11:49:56;;;;;;;18.08;4.05;;;10.20;90.80;;;;;;5101126;28;20171;-85
2022/02/06 11:52:42;;;;;;;10.02;4.43;;;10.20;90.80;;;;;;5103578;28;20203;-84
2022/02/06 11:55:30;;;;;;;7.82;3.40;;;10.30;90.90;;;;;;5102238;28;20263;-86
2022/02/06 11:58:25;;;;;;;3.97;2.22;;;10.10;90.90;;;;;;5120260;28;20179;-86
2022/02/06 12:01:10;;;;;;;13.63;2.10;;;9.20;86.50;;;;;;5104296;28;20590;-87
2022/02/06 12:03:59;;;;;;;7.55;2.17;;;8.70;87.60;;;;;;5101998;28;20226;-87
2022/02/06 12:06:49;;;;;;;16.98;3.00;;;8.40;88.50;;;;;;5119088;28;20163;-86
2022/02/06 12:09:31;;;;;;;12.82;3.03;;;8.20;89.20;;;;;;5100810;28;20567;-87
2022/02/06 12:12:12;;;;;;;9.68;2.67;;;8.20;90.10;;;;;;5118678;28;20251;-86
2022/02/06 12:14:46;;;;;;;25.25;3.28;;;8.20;90.60;;;;;;5097594;28;20183;-87
2022/02/06 12:20:21;;;;;;;8.73;2.25;;;8.10;90.20;;;;;;5118540;28;20176;-86
2022/02/06 12:22:50;;;;;;;10.10;2.42;;;8.10;88.80;;;;;;5099817;28;20252;-86
2022/02/06 12:25:37;;;;;;;4.60;1.50;;;8.10;87.90;;;;;;5106006;28;20209;-86
2022/02/06 12:28:31;;;;;;;6.30;1.80;;;8.10;87.20;;;;;;5117218;28;20171;-86
2022/02/06 12:31:15;;;;;;;5.97;1.55;;;8.20;87.10;;;;;;5098127;28;20215;-86
2022/02/06 12:33:54;;;;;;;3.90;1.10;;;8.20;86.70;;;;;;5097396;28;20724;-86
2022/02/06 12:39:32;;;;;;;8.82;1.80;;;8.30;87.00;;;;;;5095944;28;20678;-88
2022/02/06 12:41:58;;;;;;;3.25;1.02;;;8.40;86.90;;;;;;5094640;28;20192;-87
2022/02/06 12:44:26;;;;;;;2.15;1.30;;;8.50;86.90;;;;;;5077658;28;20195;-86
2022/02/06 12:46:55;;;;;;;4.05;1.70;;;8.50;86.50;;;;;;5094373;28;20203;-86
2022/02/06 12:49:32;;;;;;;12.88;1.95;;;8.50;87.00;;;;;;5115432;28;20175;-88
2022/02/06 12:51:59;;;;;;;8.10;1.70;;;8.60;86.20;;;;;;5099787;28;20195;-87
2022/02/06 12:54:26;;;;;;;3.97;1.30;;;8.70;86.00;;;;;;5116159;28;20202;-86
2022/02/06 12:56:59;;;;;;;5.22;2.00;;;8.80;85.60;;;;;;5097919;28;20687;-86
2022/02/06 12:59:27;;;;;;;6.85;1.98;;;8.80;85.30;;;;;;5098305;28;20262;-85
2022/02/06 13:01:56;;;;;;;2.38;1.00;;;8.70;84.50;;;;;;5098482;28;20187;-85
2022/02/06 13:04:28;;;;;;;4.55;1.20;;;8.70;84.10;;;;;;5116979;28;20203;-85
2022/02/06 13:07:04;;;;;;;2.08;1.10;;;8.80;84.10;;;;;;5098892;28;20555;-85
2022/02/06 13:09:37;;;;;;;1.70;1.27;;;8.70;84.30;;;;;;5098949;28;20596;-85
2022/02/06 13:12:11;;;;;;;3.50;1.23;;;8.80;84.20;;;;;;5099954;28;20233;-85
2022/02/06 13:25:33;;;;;;;4.68;1.50;;;9.10;84.90;;;;;;5122897;28;20171;-85
2022/02/06 13:28:17;;;;;;;3.10;1.30;;;9.10;84.90;;;;;;5092515;28;20187;-85
2022/02/06 13:31:07;;;;;;;5.30;1.70;;;9.10;85.00;;;;;;5103056;28;20197;-86
2022/02/06 13:33:55;;;;;;;4.97;1.33;;;9.20;85.30;;;;;;5105097;28;20276;-86
2022/02/06 13:39:05;;;;;;;5.25;1.70;;;9.50;85.70;;;;;;5115928;28;20185;-86
2022/02/06 13:41:33;;;;;;;6.80;1.52;;;9.50;85.40;;;;;;5114433;28;20222;-87
2022/02/06 13:44:10;;;;;;;7.43;1.50;;;9.50;85.30;;;;;;5115156;28;20191;-86
2022/02/06 13:46:37;;;;;;;10.38;2.05;;;9.60;85.20;;;;;;5097699;28;20261;-86
2022/02/06 13:49:08;;;;;;;3.80;1.75;;;9.60;85.10;;;;;;5097459;28;20184;-86
2022/02/06 13:51:48;;;;;;;2.92;1.50;;;9.50;85.30;;;;;;5098338;28;20182;-87
2022/02/06 13:54:15;;;;;;;4.22;1.30;;;9.50;85.30;;;;;;5098293;28;20255;-86
2022/02/06 13:56:45;;;;;;;2.25;1.27;;;9.30;85.00;;;;;;5116879;28;20178;-87
2022/02/06 13:59:18;;;;;;;2.58;1.35;;;9.20;85.40;;;;;;5097978;28;20205;-86
2022/02/06 14:01:51;;;;;;;10.73;1.30;;;9.10;85.50;;;;;;5097445;28;20201;-87
2022/02/06 14:04:21;;;;;;;1.58;0.80;;;9.00;84.80;;;;;;5096141;28;20202;-86
2022/02/06 14:06:54;;;;;;;2.65;1.10;;;9.00;84.70;;;;;;5096820;28;20179;-86
2022/02/06 14:09:35;;;;;;;2.75;1.25;;;8.90;84.60;;;;;;5115152;28;20658;-86
2022/02/06 14:12:06;;;;;;;3.20;1.10;;;8.80;84.40;;;;;;5115381;28;20210;-87
2022/02/06 14:14:46;;;;;;;4.32;1.42;;;8.90;84.70;;;;;;5097651;28;20175;-86
2022/02/06 14:17:17;;;;;;;3.63;1.27;;;9.00;85.00;;;;;;5117426;28;20181;-86
2022/02/06 14:19:45;;;;;;;4.72;1.40;;;9.00;85.30;;;;;;5120261;28;20171;-87
2022/02/06 14:22:15;;;;;;;1.25;1.13;;;9.10;85.40;;;;;;5096766;28;20247;-87
2022/02/06 14:25:02;;;;;;;5.63;1.70;;;9.10;85.20;;;;;;5072952;28;20181;-86
2022/02/06 14:27:31;;;;;;;2.13;1.00;;;9.10;85.30;;;;;;5077603;28;20271;-87
2022/02/06 14:30:01;;;;;;;3.45;1.20;;;9.20;85.00;;;;;;5110636;28;20183;-87
2022/02/06 14:32:27;;;;;;;2.00;1.38;;;9.30;84.80;;;;;;5096391;28;20210;-86
2022/02/06 14:35:08;;;;;;;3.70;1.25;;;9.20;84.20;;;;;;5099002;28;20713;-86
2022/02/06 14:37:52;;;;;;;1.25;0.70;;;9.30;84.80;;;;;;5116792;28;20176;-87
2022/02/06 14:43:16;;;;;;;1.63;0.90;;;9.20;82.80;;;;;;5105499;28;20203;-87
2022/02/06 14:45:52;;;;;;;3.63;1.70;;;9.20;82.50;;;;;;5102164;28;20444;-87
2022/02/06 14:48:19;;;;;;;3.28;0.90;;;9.20;82.50;;;;;;5086984;28;20635;-86
2022/02/06 14:50:48;;;;;;;4.55;1.30;;;9.10;82.20;;;;;;5105038;28;20175;-87
2022/02/06 14:53:15;;;;;;;5.05;1.13;;;9.10;82.30;;;;;;5106058;28;20203;-86
2022/02/06 14:55:42;;;;;;;6.55;1.30;;;9.10;82.60;;;;;;5104661;28;20312;-87
2022/02/06 14:58:09;;;;;;;1.88;1.30;;;9.20;82.80;;;;;;5102675;28;20746;-87
2022/02/06 15:00:35;;;;;;;5.35;1.50;;;9.20;83.30;;;;;;5099193;28;20171;-86
2022/02/06 15:03:01;;;;;;;5.10;1.45;;;9.20;82.70;;;;;;5118015;28;20687;-87
2022/02/06 15:05:28;;;;;;;4.20;1.60;;;9.20;82.80;;;;;;5083588;28;20267;-86
2022/02/06 15:07:54;;;;;;;4.18;1.55;;;9.20;82.90;;;;;;5098573;28;20178;-87
2022/02/06 15:10:20;;;;;;;2.45;1.10;;;9.40;82.90;;;;;;5118314;28;20265;-87
2022/02/06 15:12:47;;;;;;;4.38;2.08;;;9.50;83.20;;;;;;5119133;28;20248;-86
2022/02/06 15:15:14;;;;;;;6.50;1.50;;;9.60;82.60;;;;;;5101998;28;20645;-86
2022/02/06 15:17:40;;;;;;;8.60;1.70;;;9.70;82.20;;;;;;5101500;28;20242;-87
2022/02/06 15:20:06;;;;;;;5.10;2.17;;;9.70;81.30;;;;;;5100378;28;20260;-87
2022/02/06 15:22:32;;;;;;;7.20;3.38;;;9.90;81.40;;;;;;5111827;28;20453;-87
2022/02/06 15:24:58;;;;;;;5.50;1.97;;;9.90;80.50;;;;;;5119529;28;20194;-87
2022/02/06 15:27:24;;;;;;;10.70;2.57;;;9.90;80.20;;;;;;5101168;28;20176;-87
2022/02/06 15:29:49;;;;;;;2.08;1.52;;;9.90;79.70;;;;;;5100783;28;20171;-87
2022/02/06 15:32:17;;;;;;;4.30;2.07;;;10.00;79.50;;;;;;5087049;28;20574;-87
2022/02/06 15:34:44;;;;;;;6.60;2.50;;;10.10;79.20;;;;;;5079370;28;20179;-87
2022/02/06 15:37:13;;;;;;;7.45;2.13;;;10.00;78.20;;;;;;5117661;28;20662;-87
2022/02/06 15:39:40;;;;;;;5.63;1.88;;;9.90;77.90;;;;;;5102571;28;20194;-87
2022/02/06 15:42:16;;;;;;;3.70;2.72;;;9.90;78.00;;;;;;5102756;28;20183;-87
2022/02/06 15:44:43;;;;;;;2.47;2.03;;;9.80;77.40;;;;;;5118891;28;20171;-87